AGJ920 MGGT-MSLP
Flight info
| Callsign | AGJ920 |
|---|---|
| Flight time | 0h 34m |
| Altitude | 200 |
| Route | ALTID AUR18 MEGAL YSV LPC06 LPC59 D251J |
| Aircraft | STAR/L-SDE3FG/L |
Departure
| Time | 2026-04-30 19:34 |
|---|---|
| Airport | La Aurora International Airport (MGGT) |
Arrival
| Time | 2026-04-30 20:09 |
|---|---|
| Airport | El Salvador International Airport Saint Óscar Arnulfo Romero y Galdámez (MSLP) |
| Time | Latitude | Longitude | Altitude | Speed | Heading |
|---|---|---|---|---|---|
| 2026-04-30 19:04 | 14.59376 | -90.52566 | 4969 ft | 0 kts | 293° |
| 2026-04-30 19:27 | 14.59369 | -90.52549 | 4952 ft | 2 kts | 293° |
| 2026-04-30 19:27 | 14.59372 | -90.52531 | 4953 ft | 0 kts | 196° |
| 2026-04-30 19:28 | 14.59318 | -90.52499 | 4956 ft | 12 kts | 176° |
| 2026-04-30 19:29 | 14.59110 | -90.52564 | 4949 ft | 23 kts | 196° |
| 2026-04-30 19:29 | 14.58976 | -90.52607 | 4943 ft | 6 kts | 198° |
| 2026-04-30 19:30 | 14.58952 | -90.52618 | 4941 ft | 8 kts | 221° |
| 2026-04-30 19:30 | 14.58990 | -90.52603 | 4943 ft | 12 kts | 16° |
| 2026-04-30 19:31 | 14.59176 | -90.52545 | 4951 ft | 12 kts | 17° |
| 2026-04-30 19:31 | 14.59263 | -90.52517 | 4953 ft | 14 kts | 17° |
| 2026-04-30 19:31 | 14.59353 | -90.52488 | 4957 ft | 13 kts | 17° |
| 2026-04-30 19:32 | 14.59456 | -90.52454 | 4961 ft | 11 kts | 18° |
| 2026-04-30 19:32 | 14.59531 | -90.52430 | 4963 ft | 7 kts | 17° |
| 2026-04-30 19:32 | 14.59575 | -90.52412 | 4963 ft | 6 kts | 37° |
| 2026-04-30 19:32 | 14.59570 | -90.52352 | 4960 ft | 8 kts | 155° |
| 2026-04-30 19:33 | 14.59541 | -90.52356 | 4961 ft | 0 kts | 197° |
| 2026-04-30 19:33 | 14.59446 | -90.52386 | 4964 ft | 32 kts | 197° |
| 2026-04-30 19:33 | 14.59076 | -90.52508 | 4952 ft | 80 kts | 197° |
| 2026-04-30 19:34 | 14.58386 | -90.52731 | 4993 ft | 118 kts | 198° |
| 2026-04-30 19:34 | 14.57567 | -90.52994 | 5537 ft | 128 kts | 193° |
| 2026-04-30 19:34 | 14.56127 | -90.54148 | 6928 ft | 148 kts | 255° |
| 2026-04-30 19:35 | 14.56399 | -90.55216 | 7433 ft | 167 kts | 311° |
| 2026-04-30 19:35 | 14.57501 | -90.55523 | 8004 ft | 175 kts | 22° |
| 2026-04-30 19:35 | 14.58355 | -90.54764 | 8843 ft | 167 kts | 49° |
| 2026-04-30 19:35 | 14.59016 | -90.53698 | 9323 ft | 180 kts | 65° |
| 2026-04-30 19:36 | 14.59889 | -90.52731 | 9856 ft | 196 kts | 33° |
| 2026-04-30 19:36 | 14.61133 | -90.52061 | 10295 ft | 211 kts | 27° |
| 2026-04-30 19:36 | 14.63986 | -90.50899 | 11261 ft | 226 kts | 18° |
| 2026-04-30 19:37 | 14.65500 | -90.50440 | 11806 ft | 226 kts | 25° |
| 2026-04-30 19:37 | 14.66686 | -90.49417 | 12365 ft | 225 kts | 57° |
| 2026-04-30 19:37 | 14.67117 | -90.47889 | 12933 ft | 227 kts | 89° |
| 2026-04-30 19:37 | 14.66650 | -90.46332 | 13511 ft | 234 kts | 120° |
| 2026-04-30 19:38 | 14.65518 | -90.45107 | 14075 ft | 238 kts | 134° |
| 2026-04-30 19:38 | 14.64263 | -90.43974 | 14593 ft | 240 kts | 135° |
| 2026-04-30 19:38 | 14.63014 | -90.42836 | 15118 ft | 240 kts | 134° |
| 2026-04-30 19:38 | 14.61799 | -90.41656 | 15659 ft | 239 kts | 132° |
| 2026-04-30 19:39 | 14.60616 | -90.40446 | 16206 ft | 239 kts | 131° |
| 2026-04-30 19:39 | 14.59449 | -90.39226 | 16759 ft | 239 kts | 130° |
| 2026-04-30 19:39 | 14.58322 | -90.37974 | 17324 ft | 236 kts | 125° |
| 2026-04-30 19:39 | 14.57327 | -90.36633 | 17902 ft | 234 kts | 123° |
| 2026-04-30 19:40 | 14.56307 | -90.35324 | 18469 ft | 233 kts | 125° |
| 2026-04-30 19:40 | 14.55282 | -90.34052 | 18981 ft | 230 kts | 124° |
| 2026-04-30 19:40 | 14.54300 | -90.32780 | 19456 ft | 230 kts | 123° |
| 2026-04-30 19:40 | 14.53273 | -90.31463 | 19724 ft | 240 kts | 124° |
| 2026-04-30 19:41 | 14.52189 | -90.30095 | 19913 ft | 253 kts | 124° |
| 2026-04-30 19:41 | 14.51054 | -90.28645 | 20002 ft | 265 kts | 124° |
| 2026-04-30 19:41 | 14.49879 | -90.27148 | 20045 ft | 272 kts | 124° |
| 2026-04-30 19:41 | 14.48667 | -90.25606 | 20072 ft | 278 kts | 125° |
| 2026-04-30 19:42 | 14.47436 | -90.24035 | 20079 ft | 284 kts | 125° |
| 2026-04-30 19:42 | 14.46183 | -90.22442 | 20083 ft | 288 kts | 125° |
| 2026-04-30 19:42 | 14.44917 | -90.20829 | 20078 ft | 290 kts | 125° |
| 2026-04-30 19:42 | 14.43638 | -90.19199 | 20075 ft | 293 kts | 125° |
| 2026-04-30 19:43 | 14.42369 | -90.17586 | 20069 ft | 294 kts | 125° |
| 2026-04-30 19:43 | 14.41083 | -90.15947 | 20071 ft | 293 kts | 125° |
| 2026-04-30 19:43 | 14.39800 | -90.14315 | 20071 ft | 293 kts | 125° |
| 2026-04-30 19:44 | 14.37243 | -90.11061 | 20068 ft | 292 kts | 125° |
| 2026-04-30 19:44 | 14.35962 | -90.09432 | 20061 ft | 293 kts | 125° |
| 2026-04-30 19:44 | 14.34678 | -90.07802 | 20057 ft | 293 kts | 125° |
| 2026-04-30 19:44 | 14.33399 | -90.06172 | 20057 ft | 292 kts | 125° |
| 2026-04-30 19:45 | 14.32120 | -90.04549 | 20056 ft | 293 kts | 125° |
| 2026-04-30 19:45 | 14.30833 | -90.02915 | 20055 ft | 294 kts | 125° |
| 2026-04-30 19:45 | 14.29544 | -90.01276 | 20046 ft | 294 kts | 125° |
| 2026-04-30 19:45 | 14.28256 | -89.99641 | 20048 ft | 294 kts | 125° |
| 2026-04-30 19:46 | 14.26965 | -89.98001 | 20043 ft | 295 kts | 125° |
| 2026-04-30 19:46 | 14.25670 | -89.96357 | 20043 ft | 295 kts | 125° |
| 2026-04-30 19:46 | 14.24375 | -89.94714 | 20035 ft | 296 kts | 125° |
| 2026-04-30 19:46 | 14.23092 | -89.93084 | 20032 ft | 296 kts | 125° |
| 2026-04-30 19:47 | 14.21790 | -89.91433 | 20028 ft | 297 kts | 125° |
| 2026-04-30 19:47 | 14.20909 | -89.90317 | 20027 ft | 297 kts | 125° |
| 2026-04-30 19:47 | 14.19182 | -89.88124 | 20024 ft | 298 kts | 125° |
| 2026-04-30 19:47 | 14.17876 | -89.86469 | 20019 ft | 298 kts | 125° |
| 2026-04-30 19:48 | 14.16569 | -89.84812 | 20016 ft | 298 kts | 126° |
| 2026-04-30 19:48 | 14.15262 | -89.83155 | 20015 ft | 297 kts | 125° |
| 2026-04-30 19:48 | 14.13959 | -89.81505 | 20012 ft | 297 kts | 125° |
| 2026-04-30 19:48 | 14.12654 | -89.79852 | 20011 ft | 296 kts | 125° |
| 2026-04-30 19:49 | 14.11355 | -89.78201 | 20009 ft | 297 kts | 125° |
| 2026-04-30 19:49 | 14.09182 | -89.75455 | 20008 ft | 297 kts | 125° |
| 2026-04-30 19:49 | 14.07491 | -89.73244 | 20001 ft | 295 kts | 121° |
| 2026-04-30 19:50 | 14.06423 | -89.71454 | 20001 ft | 293 kts | 117° |
| 2026-04-30 19:50 | 14.05333 | -89.69672 | 20001 ft | 294 kts | 120° |
| 2026-04-30 19:50 | 14.04208 | -89.67913 | 20001 ft | 294 kts | 118° |
| 2026-04-30 19:50 | 14.03123 | -89.66128 | 19999 ft | 294 kts | 119° |
| 2026-04-30 19:51 | 14.02008 | -89.64362 | 19996 ft | 294 kts | 119° |
| 2026-04-30 19:51 | 14.01258 | -89.63160 | 19997 ft | 294 kts | 119° |
| 2026-04-30 19:51 | 14.00162 | -89.61384 | 19995 ft | 294 kts | 119° |
| 2026-04-30 19:51 | 13.99052 | -89.59611 | 19993 ft | 295 kts | 119° |
| 2026-04-30 19:52 | 13.97946 | -89.57834 | 19990 ft | 294 kts | 119° |
| 2026-04-30 19:52 | 13.96856 | -89.56081 | 19987 ft | 294 kts | 119° |
| 2026-04-30 19:52 | 13.95751 | -89.54310 | 19985 ft | 294 kts | 119° |
| 2026-04-30 19:52 | 13.94648 | -89.52540 | 19985 ft | 294 kts | 119° |
| 2026-04-30 19:53 | 13.93543 | -89.50768 | 19986 ft | 294 kts | 119° |
| 2026-04-30 19:53 | 13.92439 | -89.48996 | 19980 ft | 294 kts | 119° |
| 2026-04-30 19:53 | 13.91338 | -89.47231 | 19889 ft | 295 kts | 119° |
| 2026-04-30 19:53 | 13.90222 | -89.45440 | 19517 ft | 295 kts | 119° |
| 2026-04-30 19:54 | 13.89127 | -89.43688 | 19154 ft | 287 kts | 119° |
| 2026-04-30 19:54 | 13.88061 | -89.41979 | 18793 ft | 281 kts | 119° |
| 2026-04-30 19:54 | 13.87016 | -89.40301 | 18433 ft | 276 kts | 119° |
| 2026-04-30 19:54 | 13.85986 | -89.38653 | 18039 ft | 272 kts | 120° |
| 2026-04-30 19:55 | 13.84964 | -89.37015 | 17523 ft | 273 kts | 120° |
| 2026-04-30 19:55 | 13.83938 | -89.35372 | 17020 ft | 273 kts | 120° |
| 2026-04-30 19:55 | 13.82911 | -89.33729 | 16536 ft | 273 kts | 120° |
| 2026-04-30 19:55 | 13.81883 | -89.32084 | 16052 ft | 273 kts | 120° |
| 2026-04-30 19:56 | 13.80870 | -89.30462 | 15583 ft | 273 kts | 120° |
| 2026-04-30 19:56 | 13.79844 | -89.28820 | 15117 ft | 273 kts | 120° |
| 2026-04-30 19:56 | 13.78819 | -89.27181 | 14653 ft | 273 kts | 120° |
| 2026-04-30 19:56 | 13.77793 | -89.25540 | 14206 ft | 272 kts | 120° |
| 2026-04-30 19:57 | 13.76771 | -89.23903 | 13647 ft | 271 kts | 120° |
| 2026-04-30 19:57 | 13.75756 | -89.22282 | 13013 ft | 268 kts | 121° |
| 2026-04-30 19:57 | 13.74750 | -89.20676 | 12382 ft | 266 kts | 120° |
| 2026-04-30 19:57 | 13.73818 | -89.19184 | 11824 ft | 264 kts | 121° |
| 2026-04-30 19:58 | 13.72827 | -89.17598 | 11227 ft | 261 kts | 120° |
| 2026-04-30 19:58 | 13.71847 | -89.16031 | 10629 ft | 260 kts | 121° |
| 2026-04-30 19:58 | 13.70866 | -89.14472 | 10060 ft | 259 kts | 122° |
| 2026-04-30 19:58 | 13.69579 | -89.13193 | 9455 ft | 260 kts | 148° |
| 2026-04-30 19:59 | 13.67837 | -89.12678 | 8830 ft | 266 kts | 176° |
| 2026-04-30 19:59 | 13.66011 | -89.13037 | 8218 ft | 272 kts | 201° |
| 2026-04-30 19:59 | 13.62609 | -89.14807 | 7032 ft | 273 kts | 206° |
| 2026-04-30 20:00 | 13.60936 | -89.15612 | 6470 ft | 266 kts | 200° |
| 2026-04-30 20:00 | 13.59233 | -89.16392 | 5937 ft | 260 kts | 203° |
| 2026-04-30 20:00 | 13.57651 | -89.17170 | 5583 ft | 250 kts | 202° |
| 2026-04-30 20:00 | 13.56115 | -89.17937 | 5222 ft | 241 kts | 204° |
| 2026-04-30 20:01 | 13.53214 | -89.19473 | 4371 ft | 229 kts | 205° |
| 2026-04-30 20:01 | 13.51815 | -89.20231 | 4009 ft | 225 kts | 205° |
| 2026-04-30 20:01 | 13.50449 | -89.20979 | 3640 ft | 220 kts | 206° |
| 2026-04-30 20:02 | 13.47804 | -89.22425 | 2928 ft | 211 kts | 206° |
| 2026-04-30 20:02 | 13.46526 | -89.23125 | 2688 ft | 207 kts | 206° |
| 2026-04-30 20:03 | 13.44058 | -89.24463 | 2501 ft | 190 kts | 206° |
| 2026-04-30 20:03 | 13.42898 | -89.25095 | 2478 ft | 190 kts | 206° |
| 2026-04-30 20:03 | 13.41716 | -89.25739 | 2471 ft | 195 kts | 205° |
| 2026-04-30 20:03 | 13.40493 | -89.26383 | 2462 ft | 198 kts | 198° |
| 2026-04-30 20:04 | 13.39165 | -89.26411 | 2462 ft | 191 kts | 161° |
| 2026-04-30 20:04 | 13.38120 | -89.25631 | 2447 ft | 188 kts | 130° |
| 2026-04-30 20:04 | 13.37619 | -89.24419 | 2452 ft | 189 kts | 96° |
| 2026-04-30 20:05 | 13.38279 | -89.21786 | 2452 ft | 193 kts | 70° |
| 2026-04-30 20:05 | 13.38792 | -89.20528 | 2303 ft | 188 kts | 69° |
| 2026-04-30 20:05 | 13.39655 | -89.18054 | 1891 ft | 180 kts | 74° |
| 2026-04-30 20:06 | 13.40074 | -89.16846 | 1713 ft | 178 kts | 73° |
| 2026-04-30 20:06 | 13.40511 | -89.15671 | 1524 ft | 175 kts | 73° |
| 2026-04-30 20:06 | 13.40925 | -89.14511 | 1327 ft | 170 kts | 73° |
| 2026-04-30 20:06 | 13.41302 | -89.13427 | 1233 ft | 151 kts | 73° |
| 2026-04-30 20:07 | 13.41651 | -89.12459 | 1065 ft | 139 kts | 75° |
| 2026-04-30 20:07 | 13.41974 | -89.11566 | 888 ft | 128 kts | 76° |
| 2026-04-30 20:07 | 13.42591 | -89.09752 | 579 ft | 135 kts | 72° |
| 2026-04-30 20:08 | 13.42925 | -89.08841 | 386 ft | 133 kts | 73° |
| 2026-04-30 20:08 | 13.43265 | -89.07908 | 262 ft | 149 kts | 73° |
| 2026-04-30 20:08 | 13.43618 | -89.06909 | 112 ft | 141 kts | 72° |
| 2026-04-30 20:08 | 13.43909 | -89.06090 | 87 ft | 116 kts | 72° |
| 2026-04-30 20:09 | 13.44143 | -89.05420 | 89 ft | 74 kts | 70° |
| 2026-04-30 20:09 | 13.44217 | -89.05171 | 91 ft | 13 kts | 61° |
| 2026-04-30 20:09 | 13.44210 | -89.05266 | 90 ft | 11 kts | 253° |
| 2026-04-30 20:10 | 13.44332 | -89.05371 | 88 ft | 7 kts | 340° |
| 2026-04-30 20:10 | 13.44391 | -89.05392 | 87 ft | 7 kts | 340° |
| 2026-04-30 20:10 | 13.44418 | -89.05442 | 87 ft | 8 kts | 269° |
| 2026-04-30 20:11 | 13.44381 | -89.05547 | 88 ft | 6 kts | 249° |
| 2026-04-30 20:11 | 13.44356 | -89.05616 | 90 ft | 11 kts | 249° |
| 2026-04-30 20:11 | 13.44342 | -89.05675 | 89 ft | 4 kts | 314° |
| 2026-04-30 20:12 | 13.44386 | -89.05734 | 89 ft | 7 kts | 257° |
| 2026-04-30 20:12 | 13.44404 | -89.05734 | 91 ft | 3 kts | 104° |
| 2026-04-30 20:12 | 13.44399 | -89.05729 | 87 ft | 0 kts | 147° |
| 2026-04-30 20:27 | 13.44364 | -89.05703 | 89 ft | 8 kts | 141° |
| 2026-04-30 20:27 | 13.44387 | -89.05530 | 89 ft | 6 kts | 69° |
| 2026-04-30 20:28 | 13.44394 | -89.05510 | 87 ft | 0 kts | 69° |
| 2026-04-30 20:28 | 13.44395 | -89.05509 | 87 ft | 3 kts | 69° |
| 2026-04-30 20:29 | 13.44390 | -89.05381 | 88 ft | 12 kts | 126° |
| 2026-04-30 20:30 | 13.44456 | -89.05079 | 88 ft | 17 kts | 68° |
| 2026-04-30 20:30 | 13.44586 | -89.04718 | 88 ft | 16 kts | 70° |
| 2026-04-30 20:31 | 13.44687 | -89.04433 | 89 ft | 19 kts | 69° |
| 2026-04-30 20:32 | 13.44588 | -89.04211 | 96 ft | 11 kts | 205° |
| 2026-04-30 20:32 | 13.44568 | -89.04231 | 96 ft | 0 kts | 244° |
| 2026-04-30 20:33 | 13.44526 | -89.04346 | 96 ft | 46 kts | 250° |
| 2026-04-30 20:33 | 13.44092 | -89.05579 | 175 ft | 127 kts | 248° |
| 2026-04-30 20:33 | 13.43774 | -89.06404 | 897 ft | 119 kts | 243° |
| 2026-04-30 20:34 | 13.43202 | -89.08093 | 2149 ft | 134 kts | 234° |
| 2026-04-30 20:34 | 13.41444 | -89.08143 | 3308 ft | 158 kts | 132° |
| 2026-04-30 20:35 | 13.40941 | -89.07090 | 3882 ft | 172 kts | 109° |
| 2026-04-30 20:35 | 13.40578 | -89.05874 | 4424 ft | 185 kts | 104° |
| 2026-04-30 20:35 | 13.41430 | -89.03149 | 4860 ft | 234 kts | 48° |
| 2026-04-30 20:36 | 13.42858 | -89.02232 | 4933 ft | 253 kts | 20° |
| 2026-04-30 20:36 | 13.44606 | -89.02136 | 4973 ft | 255 kts | 350° |
| 2026-04-30 20:36 | 13.47481 | -89.04081 | 5360 ft | 245 kts | 331° |
| 2026-04-30 20:37 | 13.49042 | -89.04700 | 5553 ft | 239 kts | 346° |
| 2026-04-30 20:37 | 13.50645 | -89.05148 | 5754 ft | 240 kts | 348° |
| 2026-04-30 20:37 | 13.52287 | -89.05589 | 5880 ft | 246 kts | 348° |
| 2026-04-30 20:37 | 13.53914 | -89.06125 | 5940 ft | 249 kts | 345° |
| 2026-04-30 20:38 | 13.55582 | -89.06633 | 5966 ft | 250 kts | 346° |
| 2026-04-30 20:38 | 13.57222 | -89.07236 | 5987 ft | 252 kts | 340° |
| 2026-04-30 20:38 | 13.58861 | -89.07878 | 6114 ft | 252 kts | 343° |
| 2026-04-30 20:39 | 13.62162 | -89.09123 | 6119 ft | 246 kts | 339° |
| 2026-04-30 20:39 | 13.63661 | -89.09797 | 5900 ft | 230 kts | 338° |
| 2026-04-30 20:39 | 13.65084 | -89.10494 | 5536 ft | 224 kts | 328° |
| 2026-04-30 20:40 | 13.67079 | -89.12867 | 4816 ft | 215 kts | 307° |
| 2026-04-30 20:40 | 13.67987 | -89.14059 | 4463 ft | 210 kts | 308° |
| 2026-04-30 20:40 | 13.68905 | -89.15233 | 4090 ft | 210 kts | 307° |
| 2026-04-30 20:41 | 13.70842 | -89.17340 | 3657 ft | 195 kts | 327° |
| 2026-04-30 20:41 | 13.72077 | -89.17778 | 3593 ft | 186 kts | 0° |
| 2026-04-30 20:41 | 13.73309 | -89.17565 | 3552 ft | 173 kts | 28° |
| 2026-04-30 20:41 | 13.74091 | -89.16759 | 3534 ft | 154 kts | 73° |
| 2026-04-30 20:42 | 13.74083 | -89.15661 | 3541 ft | 161 kts | 109° |
| 2026-04-30 20:42 | 13.73756 | -89.14614 | 3368 ft | 141 kts | 114° |
| 2026-04-30 20:42 | 13.72386 | -89.13267 | 2640 ft | 155 kts | 154° |
| 2026-04-30 20:43 | 13.71443 | -89.12743 | 2265 ft | 155 kts | 154° |
| 2026-04-30 20:43 | 13.70533 | -89.12277 | 2043 ft | 130 kts | 154° |
| 2026-04-30 20:43 | 13.69822 | -89.11929 | 2035 ft | 94 kts | 153° |
| 2026-04-30 20:44 | 13.69330 | -89.11675 | 2036 ft | 0 kts | 155° |
| 2026-04-30 20:44 | 13.69266 | -89.11631 | 2039 ft | 13 kts | 145° |
| 2026-04-30 20:45 | 13.69233 | -89.11432 | 2048 ft | 15 kts | 46° |
| 2026-04-30 20:45 | 13.69313 | -89.11440 | 2048 ft | 15 kts | 347° |
| 2026-04-30 20:45 | 13.69412 | -89.11457 | 2048 ft | 14 kts | 18° |
| 2026-04-30 20:46 | 13.69556 | -89.11420 | 2048 ft | 0 kts | 355° |